Time;durP1;ratioP1;P1;durP2;ratioP2;P2;SDS_P1;SDS_P2;PMS_P1;PMS_P2;Temp;Humidity;BMP_temperature;BMP_pressure;BME280_temperature;BME280_humidity;BME280_pressure;Samples;Min_cycle;Max_cycle;Signal;HPM_P1;HPM_P2
2022/06/06 00:02:09;;;;;;;28.30;16.75;;;16.50;87.50;;;;;;5047839;28;20029;-71
2022/06/06 00:04:36;;;;;;;33.67;20.17;;;16.50;87.70;;;;;;5050598;28;20443;-70
2022/06/06 00:07:02;;;;;;;25.75;15.68;;;16.40;87.60;;;;;;5046180;28;20166;-69
2022/06/06 00:09:28;;;;;;;25.35;14.95;;;16.40;87.60;;;;;;5045387;28;20546;-70
2022/06/06 00:12:00;;;;;;;26.88;16.65;;;16.40;87.50;;;;;;5047054;28;20029;-68
2022/06/06 00:14:26;;;;;;;37.40;24.17;;;16.40;87.50;;;;;;5048733;28;20036;-69
2022/06/06 00:16:52;;;;;;;27.38;17.13;;;16.40;87.40;;;;;;5048523;28;20041;-69
2022/06/06 00:19:17;;;;;;;30.92;18.90;;;16.30;87.30;;;;;;5044300;28;20551;-69
2022/06/06 00:21:43;;;;;;;27.90;18.42;;;16.30;87.30;;;;;;5048570;28;20430;-71
2022/06/06 00:24:11;;;;;;;29.98;18.65;;;16.20;87.50;;;;;;5046706;28;20379;-71
2022/06/06 00:26:37;;;;;;;29.05;17.63;;;16.10;87.50;;;;;;5048290;28;20475;-69
2022/06/06 00:29:05;;;;;;;28.10;19.13;;;16.10;87.50;;;;;;5047815;28;20079;-70
2022/06/06 00:37:01;;;;;;;28.58;17.98;;;16.00;87.60;;;;;;5048151;28;20102;-69
2022/06/06 00:39:27;;;;;;;26.58;17.92;;;16.10;87.50;;;;;;5045196;28;20544;-68
2022/06/06 00:41:56;;;;;;;24.70;16.92;;;16.10;87.50;;;;;;5048497;28;20021;-70
2022/06/06 00:44:24;;;;;;;29.23;19.05;;;16.00;87.30;;;;;;5047761;28;20017;-69
2022/06/06 00:46:59;;;;;;;26.38;17.60;;;16.00;87.40;;;;;;5048797;28;20498;-70
2022/06/06 00:49:32;;;;;;;23.77;15.88;;;16.00;87.60;;;;;;5051731;28;20035;-71
2022/06/06 00:51:58;;;;;;;24.60;15.57;;;16.00;87.60;;;;;;5049236;28;20501;-69
2022/06/06 00:54:24;;;;;;;23.05;14.73;;;15.90;87.50;;;;;;5063478;28;20044;-70
2022/06/06 00:56:55;;;;;;;19.90;13.10;;;15.90;87.50;;;;;;5056283;28;20026;-69
2022/06/06 00:59:27;;;;;;;19.13;12.50;;;15.90;87.50;;;;;;5051999;28;20621;-69
2022/06/06 01:01:53;;;;;;;19.45;13.43;;;16.00;87.50;;;;;;5050767;28;20075;-69
2022/06/06 01:04:23;;;;;;;19.88;14.73;;;15.90;87.50;;;;;;5049598;28;20028;-68
2022/06/06 01:06:49;;;;;;;19.63;12.93;;;15.90;87.50;;;;;;5048671;28;20239;-68
2022/06/06 01:09:16;;;;;;;17.65;12.32;;;15.90;87.50;;;;;;5050662;28;20107;-68
2022/06/06 01:11:46;;;;;;;19.15;12.43;;;15.90;87.50;;;;;;5049195;28;20033;-69
2022/06/06 01:14:17;;;;;;;16.23;11.18;;;15.90;87.50;;;;;;5052501;28;20025;-68
2022/06/06 01:16:54;;;;;;;16.75;11.85;;;15.90;87.40;;;;;;5047653;28;20033;-68
2022/06/06 01:19:33;;;;;;;19.05;11.45;;;16.00;87.40;;;;;;5053481;28;20028;-68
2022/06/06 01:22:22;;;;;;;21.25;12.50;;;16.00;87.40;;;;;;5062531;28;20368;-69
2022/06/06 01:25:27;;;;;;;17.15;11.90;;;16.00;87.30;;;;;;5056145;28;20016;-68
2022/06/06 01:28:17;;;;;;;15.57;10.23;;;16.00;87.20;;;;;;5049678;28;20068;-69
2022/06/06 01:30:48;;;;;;;16.55;11.18;;;16.00;87.20;;;;;;5050100;28;20025;-68
2022/06/06 01:33:14;;;;;;;21.63;13.30;;;16.00;87.60;;;;;;5047177;28;20021;-70
2022/06/06 01:35:44;;;;;;;26.45;16.48;;;16.00;87.80;;;;;;5047578;28;20659;-68
2022/06/06 01:38:13;;;;;;;21.23;12.88;;;16.00;87.20;;;;;;5066540;28;20025;-68
2022/06/06 01:40:54;;;;;;;20.55;12.57;;;16.00;87.30;;;;;;5046045;28;20045;-71
2022/06/06 01:43:26;;;;;;;21.35;12.70;;;16.00;87.30;;;;;;5048801;28;20483;-69
2022/06/06 01:45:57;;;;;;;16.40;10.20;;;15.90;87.20;;;;;;5049892;28;20057;-71
2022/06/06 01:48:27;;;;;;;16.77;10.77;;;15.90;87.10;;;;;;5050893;28;20024;-71
2022/06/06 01:50:53;;;;;;;16.73;11.02;;;15.90;87.20;;;;;;5050236;28;20558;-71
2022/06/06 01:53:22;;;;;;;18.85;12.35;;;15.90;87.20;;;;;;5047749;28;20100;-69
2022/06/06 01:55:50;;;;;;;19.70;13.13;;;15.90;87.40;;;;;;5048498;28;20027;-69
2022/06/06 01:58:23;;;;;;;19.20;12.70;;;15.90;87.50;;;;;;5044130;28;20447;-69
2022/06/06 02:00:49;;;;;;;18.60;12.13;;;15.90;87.50;;;;;;5050601;28;20025;-69
2022/06/06 02:03:14;;;;;;;17.25;10.55;;;15.90;87.50;;;;;;5050042;28;20177;-70
2022/06/06 02:05:41;;;;;;;14.75;10.05;;;15.90;87.50;;;;;;5050091;28;20028;-71
2022/06/06 02:08:08;;;;;;;14.98;10.15;;;15.90;87.50;;;;;;5044435;28;20028;-70
2022/06/06 02:10:34;;;;;;;13.30;9.27;;;15.90;87.40;;;;;;5049538;28;20033;-70
2022/06/06 02:12:59;;;;;;;14.15;8.90;;;15.90;87.30;;;;;;5049960;28;20441;-70
2022/06/06 02:15:27;;;;;;;13.52;9.30;;;15.90;87.20;;;;;;5049796;28;20021;-69
2022/06/06 02:17:54;;;;;;;15.48;9.70;;;15.90;87.10;;;;;;5048870;28;20561;-70
2022/06/06 02:20:23;;;;;;;20.83;13.30;;;15.90;87.10;;;;;;5049872;28;20021;-70
2022/06/06 02:22:49;;;;;;;19.02;11.13;;;15.90;87.20;;;;;;5055780;28;20029;-70
2022/06/06 02:25:15;;;;;;;17.52;11.43;;;15.90;87.20;;;;;;5048368;28;20713;-70
2022/06/06 02:27:41;;;;;;;16.05;10.15;;;15.90;88.00;;;;;;5049879;28;20025;-70
2022/06/06 02:30:14;;;;;;;18.83;12.20;;;15.90;87.20;;;;;;5048625;28;20540;-71
2022/06/06 02:32:40;;;;;;;15.65;10.20;;;15.90;87.20;;;;;;5050440;28;20398;-69
2022/06/06 02:35:08;;;;;;;14.88;9.65;;;15.90;87.20;;;;;;5046964;28;20025;-69
2022/06/06 02:37:34;;;;;;;16.95;10.40;;;15.90;87.00;;;;;;5048684;28;20061;-69
2022/06/06 02:39:59;;;;;;;11.30;7.68;;;15.90;86.90;;;;;;5049599;28;20060;-68
2022/06/06 02:42:25;;;;;;;13.65;8.75;;;16.00;86.80;;;;;;5048597;28;20025;-68
2022/06/06 02:44:51;;;;;;;15.40;9.77;;;16.00;86.70;;;;;;5046416;28;20028;-69
2022/06/06 02:47:16;;;;;;;12.95;8.57;;;16.00;86.70;;;;;;5047886;28;20078;-68
2022/06/06 02:49:42;;;;;;;18.85;11.77;;;16.00;86.70;;;;;;5048085;28;20025;-69
2022/06/06 02:52:07;;;;;;;17.80;9.63;;;16.10;86.70;;;;;;5048523;28;20399;-69
2022/06/06 02:54:33;;;;;;;17.35;11.13;;;16.10;86.70;;;;;;5045490;28;20108;-70
2022/06/06 02:56:59;;;;;;;17.08;10.45;;;16.10;86.70;;;;;;5043380;28;20025;-69
2022/06/06 02:59:26;;;;;;;22.17;12.55;;;16.10;86.70;;;;;;5048980;28;20059;-69
2022/06/06 03:01:52;;;;;;;17.92;11.88;;;16.10;86.60;;;;;;5053702;28;20009;-69
2022/06/06 03:04:18;;;;;;;23.67;13.13;;;16.10;86.70;;;;;;5048510;28;20537;-70
2022/06/06 03:07:23;;;;;;;22.73;14.77;;;16.10;86.80;;;;;;5056069;28;20028;-70
2022/06/06 03:10:02;;;;;;;21.17;13.77;;;16.10;86.70;;;;;;5049742;28;20040;-69
2022/06/06 03:12:46;;;;;;;23.08;14.23;;;16.10;86.70;;;;;;5047650;28;20017;-70
2022/06/06 03:15:32;;;;;;;22.67;13.05;;;16.10;86.70;;;;;;5080006;28;20025;-70
2022/06/06 03:21:36;;;;;;;20.35;12.32;;;16.10;86.80;;;;;;5049251;28;20120;-69
2022/06/06 03:24:15;;;;;;;21.90;13.25;;;16.10;86.80;;;;;;5047508;28;20025;-69
2022/06/06 03:27:13;;;;;;;18.05;11.35;;;16.10;86.80;;;;;;5049447;28;20029;-69
2022/06/06 03:29:41;;;;;;;23.85;13.55;;;16.10;86.80;;;;;;5047518;28;20386;-70
2022/06/06 03:32:41;;;;;;;30.38;14.57;;;16.10;86.80;;;;;;5048707;28;20029;-70
2022/06/06 03:35:52;;;;;;;19.00;11.45;;;16.10;86.80;;;;;;5046930;28;20032;-69
2022/06/06 03:38:23;;;;;;;23.40;13.73;;;16.10;86.60;;;;;;5047139;28;20032;-68
2022/06/06 03:41:05;;;;;;;21.42;13.82;;;16.10;86.60;;;;;;5043627;28;20467;-69
2022/06/06 03:43:34;;;;;;;18.25;11.13;;;16.20;86.60;;;;;;5050746;28;20025;-68
2022/06/06 03:46:32;;;;;;;16.77;10.20;;;16.20;86.60;;;;;;5045280;28;20043;-68
2022/06/06 03:49:25;;;;;;;28.42;17.13;;;16.20;86.50;;;;;;5041760;28;20021;-68
2022/06/06 03:52:00;;;;;;;25.35;15.30;;;16.20;86.70;;;;;;5047778;28;20028;-69
2022/06/06 03:54:55;;;;;;;21.05;12.95;;;16.20;86.70;;;;;;5049974;28;20020;-69
2022/06/06 03:57:24;;;;;;;21.38;12.52;;;16.20;86.80;;;;;;5043646;28;20024;-70
2022/06/06 04:00:04;;;;;;;19.27;12.50;;;16.20;86.70;;;;;;5045269;28;20061;-69
2022/06/06 04:02:32;;;;;;;15.93;10.05;;;16.20;87.10;;;;;;5047776;28;20104;-67
2022/06/06 04:05:09;;;;;;;16.73;10.70;;;16.20;86.60;;;;;;5045479;28;20041;-70
2022/06/06 04:07:34;;;;;;;21.42;13.45;;;16.30;86.60;;;;;;5046704;28;20071;-70
2022/06/06 04:10:01;;;;;;;20.55;13.10;;;16.30;86.70;;;;;;5043476;28;20037;-69
2022/06/06 04:12:51;;;;;;;18.27;11.00;;;16.30;86.70;;;;;;5048898;28;20048;-69
2022/06/06 04:15:43;;;;;;;19.42;11.70;;;16.30;86.80;;;;;;5047467;28;20025;-69
2022/06/06 04:18:43;;;;;;;21.85;13.23;;;16.20;86.90;;;;;;5047843;28;20029;-70
2022/06/06 04:21:31;;;;;;;19.70;12.13;;;16.30;86.90;;;;;;5046758;28;20025;-70
2022/06/06 04:24:18;;;;;;;19.30;12.23;;;16.30;86.90;;;;;;5048026;28;20048;-69
2022/06/06 04:26:58;;;;;;;18.40;11.07;;;16.30;86.90;;;;;;5049576;28;20400;-70
2022/06/06 04:29:32;;;;;;;22.95;14.52;;;16.30;86.90;;;;;;5049401;28;20029;-70
2022/06/06 04:32:02;;;;;;;24.27;15.23;;;16.30;87.10;;;;;;5048926;28;20409;-69
2022/06/06 04:34:40;;;;;;;28.98;18.15;;;16.20;87.20;;;;;;5051078;28;20027;-69
2022/06/06 04:37:38;;;;;;;24.77;15.60;;;16.20;87.50;;;;;;5049293;28;20032;-68
2022/06/06 04:40:38;;;;;;;29.13;18.25;;;16.20;87.40;;;;;;5035318;28;20159;-67
2022/06/06 04:43:41;;;;;;;27.15;17.55;;;16.10;87.50;;;;;;5044542;28;20066;-68
2022/06/06 04:46:29;;;;;;;34.30;20.73;;;16.20;87.50;;;;;;5052114;28;20025;-69
2022/06/06 04:48:56;;;;;;;32.70;20.67;;;16.10;87.50;;;;;;5050625;28;20033;-69
2022/06/06 04:51:23;;;;;;;38.05;22.80;;;16.10;87.50;;;;;;5050633;28;20017;-69
2022/06/06 04:53:56;;;;;;;33.58;21.17;;;16.10;87.40;;;;;;5048526;28;20081;-71
2022/06/06 04:56:23;;;;;;;29.63;18.85;;;16.00;87.20;;;;;;5049140;28;20033;-71
2022/06/06 04:58:51;;;;;;;26.73;17.42;;;16.00;87.20;;;;;;5048305;28;20028;-71
2022/06/06 05:01:16;;;;;;;26.75;17.67;;;16.00;87.20;;;;;;5048171;28;20032;-69
2022/06/06 05:03:42;;;;;;;28.77;18.52;;;16.00;87.20;;;;;;5050719;28;20029;-71
2022/06/06 05:06:32;;;;;;;25.00;16.88;;;16.00;87.00;;;;;;5051706;28;20607;-71
2022/06/06 05:09:19;;;;;;;27.75;18.92;;;16.00;86.90;;;;;;5046428;28;20029;-69
2022/06/06 05:12:04;;;;;;;23.45;15.43;;;15.90;86.70;;;;;;5049524;28;20025;-69
2022/06/06 05:14:35;;;;;;;29.92;20.42;;;15.90;86.70;;;;;;5048474;28;20426;-69
2022/06/06 05:17:32;;;;;;;23.25;15.93;;;15.90;86.60;;;;;;5043450;28;20029;-70
2022/06/06 05:20:00;;;;;;;29.23;18.83;;;15.90;86.50;;;;;;5046863;28;20033;-71
2022/06/06 05:22:54;;;;;;;27.17;17.83;;;15.90;86.50;;;;;;5050272;28;20029;-70
2022/06/06 05:25:28;;;;;;;23.60;16.15;;;15.90;86.40;;;;;;5044302;28;20025;-69
2022/06/06 05:28:22;;;;;;;23.98;16.13;;;15.90;86.30;;;;;;5048216;28;20051;-71
2022/06/06 05:30:51;;;;;;;25.92;18.17;;;15.80;86.10;;;;;;5050177;28;20574;-70
2022/06/06 05:33:23;;;;;;;27.83;18.67;;;15.80;85.90;;;;;;5054348;28;20025;-71
2022/06/06 05:36:26;;;;;;;28.60;19.00;;;15.80;85.70;;;;;;5047639;28;20155;-71
2022/06/06 05:39:16;;;;;;;24.10;15.52;;;15.90;85.60;;;;;;5050081;28;20093;-71
2022/06/06 05:42:23;;;;;;;26.75;19.10;;;15.90;85.30;;;;;;5049143;28;20124;-71
2022/06/06 05:45:22;;;;;;;21.15;15.93;;;15.80;85.20;;;;;;5048309;28;20029;-68
2022/06/06 05:48:02;;;;;;;22.33;14.80;;;15.80;85.10;;;;;;5051442;28;20046;-69
2022/06/06 05:50:50;;;;;;;22.17;16.20;;;15.80;85.00;;;;;;5049840;28;20029;-69
2022/06/06 05:53:43;;;;;;;18.52;13.85;;;15.80;84.90;;;;;;5045030;28;20029;-68
2022/06/06 05:56:40;;;;;;;18.88;13.60;;;15.80;84.70;;;;;;5044912;28;20030;-70
2022/06/06 05:59:23;;;;;;;15.35;11.35;;;16.00;84.60;;;;;;5050559;28;20029;-69
2022/06/06 06:02:21;;;;;;;11.85;9.00;;;16.50;84.70;;;;;;5052151;28;20052;-69
2022/06/06 06:05:09;;;;;;;15.32;12.30;;;16.90;82.60;;;;;;5039633;28;20048;-68
2022/06/06 06:07:50;;;;;;;13.38;9.95;;;17.20;81.00;;;;;;5050204;28;20053;-68
2022/06/06 06:10:57;;;;;;;13.50;9.75;;;17.40;80.10;;;;;;5049622;28;20567;-68
2022/06/06 06:13:42;;;;;;;13.93;10.45;;;17.70;79.40;;;;;;5048664;28;20374;-69
2022/06/06 06:16:10;;;;;;;12.68;9.32;;;17.70;78.00;;;;;;5048977;28;20025;-69
2022/06/06 06:18:44;;;;;;;10.63;8.23;;;17.70;78.30;;;;;;5053467;28;20060;-68
2022/06/06 06:21:21;;;;;;;12.65;9.32;;;17.70;77.50;;;;;;5048948;28;20387;-68
2022/06/06 06:23:54;;;;;;;10.90;7.90;;;17.50;76.40;;;;;;5049238;28;20029;-69
2022/06/06 06:26:20;;;;;;;10.30;7.90;;;17.50;76.40;;;;;;5049144;28;20029;-69
2022/06/06 06:28:49;;;;;;;8.75;6.90;;;17.60;75.90;;;;;;5050561;28;20115;-68
2022/06/06 06:31:36;;;;;;;9.27;6.72;;;17.60;75.80;;;;;;5049242;28;20547;-68
2022/06/06 06:34:14;;;;;;;9.82;7.22;;;17.50;76.10;;;;;;5048210;28;20024;-68
2022/06/06 06:36:57;;;;;;;12.07;8.60;;;17.40;75.80;;;;;;5046349;28;20040;-68
2022/06/06 06:39:41;;;;;;;9.80;7.18;;;17.20;75.80;;;;;;5048429;28;20029;-67
2022/06/06 06:42:41;;;;;;;10.25;7.35;;;17.10;76.40;;;;;;5048455;28;20039;-68
2022/06/06 06:45:21;;;;;;;10.60;7.47;;;17.00;76.50;;;;;;5048507;28;20045;-69
2022/06/06 06:47:52;;;;;;;9.98;6.55;;;17.00;76.30;;;;;;5049779;28;20021;-68
2022/06/06 06:50:29;;;;;;;9.65;6.47;;;17.10;76.20;;;;;;5049431;28;20025;-68
2022/06/06 06:53:13;;;;;;;8.32;5.78;;;17.00;75.50;;;;;;5050116;28;20121;-69
2022/06/06 06:56:15;;;;;;;8.18;6.30;;;17.00;75.60;;;;;;5049206;28;20109;-67
2022/06/06 06:59:02;;;;;;;8.52;6.10;;;17.10;75.40;;;;;;5046583;28;20562;-69
2022/06/06 07:08:39;;;;;;;14.05;6.82;;;17.50;75.20;;;;;;5048627;28;20060;-69
2022/06/06 07:11:22;;;;;;;7.57;5.65;;;17.40;74.40;;;;;;5051712;28;20242;-69
2022/06/06 07:14:12;;;;;;;8.23;5.72;;;17.40;74.30;;;;;;5049765;28;20025;-69
2022/06/06 07:16:39;;;;;;;8.32;6.05;;;17.40;74.30;;;;;;5047508;28;20029;-69
2022/06/06 07:19:11;;;;;;;7.82;5.68;;;17.50;74.20;;;;;;5051889;28;20036;-69
2022/06/06 07:21:38;;;;;;;6.28;4.82;;;17.50;73.90;;;;;;5048490;28;20115;-69
2022/06/06 07:24:07;;;;;;;9.60;5.70;;;17.60;73.90;;;;;;5048610;28;20021;-68
2022/06/06 07:26:37;;;;;;;5.93;4.72;;;17.60;73.30;;;;;;5051913;28;20616;-69
2022/06/06 07:29:06;;;;;;;9.15;5.72;;;17.70;73.50;;;;;;5045714;28;20090;-69
2022/06/06 07:32:10;;;;;;;9.80;6.95;;;17.80;73.20;;;;;;5047040;28;20339;-70
2022/06/06 07:35:01;;;;;;;9.77;7.38;;;17.90;72.80;;;;;;5045078;28;20404;-69
2022/06/06 07:37:41;;;;;;;7.72;5.90;;;17.80;72.00;;;;;;5047832;28;20480;-68
2022/06/06 07:40:31;;;;;;;8.43;7.15;;;17.80;71.60;;;;;;5050406;28;20028;-70
2022/06/06 07:43:37;;;;;;;8.15;5.82;;;17.80;71.10;;;;;;5049751;28;20029;-69
2022/06/06 07:46:32;;;;;;;6.20;5.05;;;17.70;71.00;;;;;;5041229;28;20027;-69
2022/06/06 07:49:04;;;;;;;9.05;5.50;;;17.80;71.00;;;;;;5039916;28;20032;-69
2022/06/06 07:51:50;;;;;;;6.43;4.45;;;17.90;69.70;;;;;;5050322;28;20540;-70
2022/06/06 07:54:33;;;;;;;5.47;4.07;;;17.90;69.40;;;;;;5045870;28;20539;-69
2022/06/06 07:57:06;;;;;;;5.47;3.10;;;18.00;68.80;;;;;;5043484;28;20017;-69
2022/06/06 07:59:50;;;;;;;4.20;3.05;;;18.20;68.80;;;;;;5045244;28;20041;-70
2022/06/06 08:02:49;;;;;;;4.05;2.88;;;18.40;68.50;;;;;;5045207;28;20060;-69
2022/06/06 08:05:27;;;;;;;6.15;3.33;;;18.60;67.50;;;;;;5046383;28;20021;-70
2022/06/06 08:08:08;;;;;;;4.63;3.00;;;18.60;65.90;;;;;;5046902;28;20028;-69
2022/06/06 08:10:44;;;;;;;3.92;2.60;;;18.60;65.70;;;;;;5042393;28;20440;-69
2022/06/06 08:13:30;;;;;;;5.18;2.80;;;18.50;65.50;;;;;;5041911;28;20479;-69
2022/06/06 08:16:24;;;;;;;4.38;2.50;;;18.50;65.40;;;;;;5047302;28;20021;-70
2022/06/06 08:19:14;;;;;;;4.50;2.97;;;18.60;65.50;;;;;;5048422;28;20036;-70
2022/06/06 08:21:46;;;;;;;3.97;2.40;;;18.60;64.60;;;;;;5049479;28;20021;-70
2022/06/06 08:24:16;;;;;;;;;;;18.50;65.00;;;;;;5050461;28;20387;-70
2022/06/06 08:26:46;;;;;;;3.95;2.00;;;18.50;65.60;;;;;;5049858;28;19904;-70
2022/06/06 08:29:12;;;;;;;3.08;1.98;;;18.50;65.40;;;;;;5047993;28;20060;-70
2022/06/06 08:31:38;;;;;;;3.35;1.77;;;18.40;64.60;;;;;;5049730;28;20036;-70
2022/06/06 08:34:04;;;;;;;1.70;1.60;;;18.30;64.50;;;;;;5049311;28;20028;-69
2022/06/06 08:36:33;;;;;;;3.45;1.80;;;18.20;65.00;;;;;;5049491;28;20025;-69
2022/06/06 08:39:14;;;;;;;2.38;1.70;;;18.30;64.90;;;;;;5049077;28;20057;-69
2022/06/06 08:42:03;;;;;;;2.22;1.90;;;18.30;64.40;;;;;;5049212;28;20021;-70
2022/06/06 08:44:55;;;;;;;3.83;1.90;;;18.20;63.80;;;;;;5048359;28;20031;-69
2022/06/06 08:47:35;;;;;;;2.72;2.00;;;18.00;64.50;;;;;;5025102;28;20048;-69
2022/06/06 08:53:00;;;;;;;2.13;1.70;;;18.10;65.10;;;;;;5049405;28;20059;-70
2022/06/06 08:55:47;;;;;;;3.40;2.30;;;18.40;64.70;;;;;;5047556;28;20029;-70
2022/06/06 08:58:30;;;;;;;3.50;1.98;;;18.40;64.00;;;;;;5044819;28;20037;-69
2022/06/06 09:01:23;;;;;;;3.28;1.90;;;18.50;64.10;;;;;;5042283;28;20083;-69
2022/06/06 09:04:08;;;;;;;2.45;1.60;;;18.50;63.10;;;;;;5050717;28;20020;-70
2022/06/06 09:06:39;;;;;;;5.88;1.80;;;18.60;63.40;;;;;;5050720;28;20490;-69
2022/06/06 09:09:25;;;;;;;2.17;1.58;;;18.60;62.70;;;;;;5051956;28;20044;-69
2022/06/06 09:12:17;;;;;;;3.35;1.52;;;18.70;62.60;;;;;;5052612;28;20021;-69
2022/06/06 09:15:06;;;;;;;2.47;1.50;;;18.90;62.60;;;;;;5054102;28;20118;-70
2022/06/06 09:17:49;;;;;;;2.45;1.30;;;18.90;61.80;;;;;;5052602;28;20028;-69
2022/06/06 09:20:23;;;;;;;2.45;1.20;;;19.10;62.20;;;;;;5055804;28;20028;-69
2022/06/06 09:23:07;;;;;;;2.58;1.30;;;19.20;61.70;;;;;;5061055;28;20044;-69
2022/06/06 09:25:37;;;;;;;1.60;1.40;;;19.20;61.20;;;;;;5060697;28;20016;-69
2022/06/06 09:28:28;;;;;;;4.82;1.90;;;19.10;60.80;;;;;;5058048;28;20028;-69
2022/06/06 09:31:08;;;;;;;3.17;1.40;;;19.20;60.60;;;;;;5059846;28;20033;-70
2022/06/06 09:33:54;;;;;;;2.50;1.40;;;19.30;60.40;;;;;;5051272;28;20033;-70
2022/06/06 09:36:54;;;;;;;2.05;1.30;;;19.40;60.80;;;;;;5054300;28;20043;-69
2022/06/06 09:39:44;;;;;;;2.22;1.00;;;19.50;60.60;;;;;;5057706;28;20024;-69
2022/06/06 09:42:32;;;;;;;2.10;1.05;;;19.70;60.70;;;;;;5050112;28;20032;-69
2022/06/06 09:45:10;;;;;;;2.22;1.55;;;19.80;59.90;;;;;;5089319;28;20028;-70
2022/06/06 09:47:44;;;;;;;1.95;1.40;;;20.00;58.10;;;;;;5049473;28;20032;-69
2022/06/06 09:50:48;;;;;;;1.95;1.35;;;19.90;57.60;;;;;;5045673;28;20029;-70
2022/06/06 09:53:32;;;;;;;1.80;1.10;;;20.00;57.30;;;;;;5049673;28;20052;-70
2022/06/06 09:59:24;;;;;;;2.97;2.20;;;20.20;57.20;;;;;;5045888;28;20819;-68
2022/06/06 10:02:34;;;;;;;2.17;1.50;;;20.20;56.30;;;;;;5053236;28;20025;-69
2022/06/06 10:05:26;;;;;;;3.47;1.80;;;20.20;57.50;;;;;;5044464;28;20032;-69
2022/06/06 10:08:26;;;;;;;3.63;1.48;;;20.40;56.70;;;;;;5050295;28;21402;-69
2022/06/06 10:11:10;;;;;;;3.20;1.60;;;20.30;56.70;;;;;;5049542;28;20021;-69
2022/06/06 10:14:13;;;;;;;3.15;1.42;;;20.20;57.00;;;;;;5052093;28;20060;-68
2022/06/06 10:17:05;;;;;;;2.95;1.70;;;20.30;57.20;;;;;;5048066;28;20506;-68
2022/06/06 10:19:54;;;;;;;1.77;1.55;;;20.40;56.70;;;;;;5050205;28;20064;-68
2022/06/06 10:22:33;;;;;;;3.60;1.70;;;20.30;56.70;;;;;;5047996;28;20024;-69
2022/06/06 10:25:11;;;;;;;2.60;1.42;;;20.30;57.00;;;;;;5051029;28;20096;-69
2022/06/06 10:27:49;;;;;;;1.30;1.20;;;20.30;57.50;;;;;;5051603;28;20021;-69
2022/06/06 10:30:31;;;;;;;1.80;1.48;;;20.30;57.60;;;;;;5050105;28;20033;-69
2022/06/06 10:33:20;;;;;;;2.70;1.42;;;20.20;57.60;;;;;;5050596;28;20020;-68
2022/06/06 10:36:11;;;;;;;1.70;1.60;;;20.00;58.40;;;;;;5054075;28;20390;-68
2022/06/06 10:38:57;;;;;;;4.17;2.10;;;20.00;58.50;;;;;;5048019;28;20029;-68
2022/06/06 10:41:48;;;;;;;4.03;1.90;;;19.80;58.20;;;;;;5051087;28;20299;-69
2022/06/06 10:44:35;;;;;;;1.63;1.33;;;19.60;58.50;;;;;;5052666;28;20522;-69
2022/06/06 10:47:06;;;;;;;1.88;1.30;;;19.60;59.10;;;;;;5045189;28;20229;-67
2022/06/06 10:50:00;;;;;;;2.33;1.50;;;19.80;59.20;;;;;;5052117;28;20036;-69
2022/06/06 10:52:46;;;;;;;5.07;1.52;;;20.00;58.90;;;;;;5051454;28;20013;-69
2022/06/06 10:55:21;;;;;;;3.10;1.60;;;20.10;58.20;;;;;;5050236;28;20032;-69
2022/06/06 10:58:01;;;;;;;2.10;1.80;;;20.30;58.10;;;;;;5050776;28;20047;-69
2022/06/06 11:00:56;;;;;;;2.00;1.80;;;20.40;57.40;;;;;;5047381;28;20426;-69
2022/06/06 11:03:32;;;;;;;3.80;1.88;;;20.30;57.10;;;;;;5046651;28;20029;-69
2022/06/06 11:06:22;;;;;;;4.82;1.73;;;20.40;56.90;;;;;;5048904;28;20411;-69
2022/06/06 11:09:23;;;;;;;2.65;1.70;;;20.20;56.70;;;;;;5049536;28;20086;-69
2022/06/06 11:11:51;;;;;;;2.08;1.70;;;20.10;56.30;;;;;;5048788;28;20017;-70
2022/06/06 11:14:26;;;;;;;2.97;1.77;;;20.10;56.40;;;;;;5051083;28;20581;-68
2022/06/06 11:17:19;;;;;;;3.33;2.40;;;20.00;56.90;;;;;;5050943;28;20038;-69
2022/06/06 11:20:08;;;;;;;2.60;2.05;;;20.00;56.90;;;;;;5048847;28;20056;-69
2022/06/06 11:22:49;;;;;;;2.03;1.70;;;20.00;57.70;;;;;;5050133;28;20029;-69
2022/06/06 11:25:20;;;;;;;5.10;2.20;;;20.10;57.30;;;;;;5046338;28;20426;-69
2022/06/06 11:28:06;;;;;;;2.38;1.95;;;20.20;57.30;;;;;;5047929;28;20051;-69
2022/06/06 11:31:08;;;;;;;2.22;1.92;;;20.40;56.70;;;;;;5047037;28;20186;-70
2022/06/06 11:33:46;;;;;;;2.00;1.80;;;20.60;56.10;;;;;;5048512;28;20122;-68
2022/06/06 11:36:17;;;;;;;2.72;1.77;;;20.80;55.80;;;;;;5037168;28;20182;-68
2022/06/06 11:39:02;;;;;;;2.67;1.70;;;20.90;55.30;;;;;;5047961;28;20032;-69
2022/06/06 11:41:55;;;;;;;1.55;1.40;;;20.90;55.20;;;;;;5051494;28;20021;-68
2022/06/06 11:45:10;;;;;;;1.88;1.48;;;20.90;55.50;;;;;;5044735;28;20043;-68
2022/06/06 11:47:51;;;;;;;2.80;1.35;;;20.90;55.20;;;;;;5049983;28;20548;-68
2022/06/06 11:50:58;;;;;;;3.17;1.92;;;21.00;54.90;;;;;;5049511;28;20105;-69
2022/06/06 11:54:04;;;;;;;2.35;1.38;;;21.00;54.50;;;;;;5048505;28;20029;-69
2022/06/06 11:56:46;;;;;;;3.42;1.40;;;20.90;53.90;;;;;;5062015;28;20391;-69
2022/06/06 11:59:39;;;;;;;1.70;1.17;;;20.80;54.60;;;;;;5053591;28;20024;-68
2022/06/06 12:02:34;;;;;;;1.90;1.50;;;20.80;55.00;;;;;;5057736;28;20483;-68
2022/06/06 12:05:30;;;;;;;1.40;1.30;;;20.70;55.20;;;;;;5055674;28;20013;-69
2022/06/06 12:08:18;;;;;;;3.25;1.45;;;20.70;55.80;;;;;;5050680;28;20025;-69
2022/06/06 12:10:46;;;;;;;2.20;1.40;;;20.40;56.20;;;;;;5053946;28;20390;-68
2022/06/06 12:13:23;;;;;;;1.85;1.00;;;20.30;56.60;;;;;;5048575;28;20028;-68
2022/06/06 12:16:36;;;;;;;1.13;0.98;;;20.20;57.10;;;;;;5048385;28;20029;-68
2022/06/06 12:19:42;;;;;;;1.55;1.10;;;20.10;58.10;;;;;;5030603;28;20032;-69
2022/06/06 12:23:02;;;;;;;1.70;1.55;;;20.00;59.00;;;;;;5044902;28;20055;-68
2022/06/06 12:25:34;;;;;;;2.63;1.50;;;19.80;59.30;;;;;;5014602;28;20049;-69
2022/06/06 12:28:17;;;;;;;1.70;1.25;;;19.80;59.90;;;;;;5047278;28;20380;-69
2022/06/06 12:31:06;;;;;;;2.13;1.40;;;20.10;59.90;;;;;;5045771;28;20147;-69
2022/06/06 12:33:48;;;;;;;1.50;1.38;;;20.20;59.30;;;;;;5050095;28;20103;-69
2022/06/06 12:36:19;;;;;;;3.53;1.60;;;20.20;58.90;;;;;;5049385;28;20072;-69
2022/06/06 12:39:17;;;;;;;3.07;1.60;;;20.00;59.10;;;;;;5048719;28;20483;-69
2022/06/06 12:42:02;;;;;;;2.33;1.50;;;19.60;60.20;;;;;;5020334;28;20139;-69
2022/06/06 12:44:56;;;;;;;3.33;1.65;;;19.30;62.30;;;;;;5053589;28;20084;-68
2022/06/06 12:47:49;;;;;;;2.63;1.58;;;19.10;63.30;;;;;;5038071;28;20483;-68
2022/06/06 12:50:53;;;;;;;1.95;1.55;;;18.80;64.10;;;;;;5047475;28;20017;-68
2022/06/06 12:53:39;;;;;;;3.60;1.88;;;18.70;64.80;;;;;;5036729;28;20163;-68
2022/06/06 12:56:24;;;;;;;2.50;1.75;;;18.50;66.20;;;;;;5053168;28;20025;-68
2022/06/06 12:59:27;;;;;;;2.33;1.50;;;18.30;67.00;;;;;;5053117;28;20049;-68
2022/06/06 13:02:04;;;;;;;1.63;1.20;;;18.20;67.50;;;;;;5052530;28;20069;-67
2022/06/06 13:04:35;;;;;;;1.42;1.33;;;18.20;67.90;;;;;;5053096;28;20025;-68
2022/06/06 13:07:15;;;;;;;1.93;1.50;;;18.30;68.20;;;;;;5052084;28;20025;-68
2022/06/06 13:10:18;;;;;;;1.63;1.30;;;18.40;68.10;;;;;;5052741;28;20139;-68
2022/06/06 13:13:12;;;;;;;2.22;1.50;;;18.40;67.90;;;;;;5066068;28;20043;-68
2022/06/06 13:15:58;;;;;;;2.50;1.70;;;18.40;67.70;;;;;;5053301;28;20491;-68
2022/06/06 13:18:30;;;;;;;2.72;1.50;;;18.40;67.80;;;;;;5052124;28;20510;-69
2022/06/06 13:20:55;;;;;;;1.65;1.40;;;18.30;67.60;;;;;;5052332;28;20056;-69
2022/06/06 13:23:57;;;;;;;2.92;1.80;;;18.30;67.80;;;;;;5051456;28;20462;-68
2022/06/06 13:26:23;;;;;;;;;;;18.20;67.60;;;;;;5046680;28;20099;-69
2022/06/06 13:28:53;;;;;;;2.03;1.63;;;18.30;67.70;;;;;;5051938;28;19988;-68
2022/06/06 13:31:23;;;;;;;2.20;1.58;;;18.30;67.70;;;;;;5051945;28;20488;-70
2022/06/06 13:34:23;;;;;;;3.13;1.90;;;18.40;67.60;;;;;;5051467;28;20056;-69
2022/06/06 13:37:01;;;;;;;2.47;1.67;;;18.60;67.40;;;;;;5052165;28;20033;-69
2022/06/06 13:39:34;;;;;;;4.00;2.08;;;18.70;66.80;;;;;;5052277;28;20017;-70
2022/06/06 13:42:25;;;;;;;2.83;1.60;;;18.70;66.60;;;;;;5052295;28;20460;-69
2022/06/06 13:45:24;;;;;;;2.05;1.30;;;18.80;65.40;;;;;;5059981;28;20020;-69
2022/06/06 13:48:04;;;;;;;1.40;1.30;;;18.80;65.30;;;;;;5051073;28;20025;-68
2022/06/06 13:50:49;;;;;;;2.45;1.30;;;18.80;65.10;;;;;;5059345;28;20025;-69
2022/06/06 13:53:42;;;;;;;2.60;1.60;;;18.80;64.70;;;;;;5045781;28;20025;-69
2022/06/06 13:56:34;;;;;;;3.95;1.63;;;18.80;64.50;;;;;;5049312;28;20025;-69
2022/06/06 13:59:25;;;;;;;2.47;1.55;;;18.60;64.30;;;;;;5051065;28;20020;-69
2022/06/06 14:02:14;;;;;;;2.28;1.50;;;18.60;64.40;;;;;;5050366;28;20428;-69
2022/06/06 14:04:42;;;;;;;3.50;1.58;;;18.50;64.50;;;;;;5050724;28;20498;-69
2022/06/06 14:07:22;;;;;;;1.95;1.15;;;18.60;64.50;;;;;;5050278;28;20836;-69
2022/06/06 14:09:57;;;;;;;2.25;1.35;;;18.60;64.80;;;;;;5049673;28;20025;-69